createdAt,value
2023-01-27T00:02:31.865Z,98814.19
2023-01-27T00:07:34.984Z,98812.25
2023-01-27T00:12:56.892Z,98811.25
2023-01-27T00:17:59.795Z,98813.81
2023-01-27T00:23:20.077Z,98804.94
2023-01-27T00:28:25.550Z,98802.31
2023-01-27T00:33:29.262Z,98803.09
2023-01-27T00:38:34.076Z,98803.88
2023-01-27T00:43:38.247Z,98805.56
2023-01-27T00:48:41.197Z,98803.88
2023-01-27T00:53:43.921Z,98796.78
2023-01-27T00:58:48.120Z,98802.91
2023-01-27T01:03:50.944Z,98799.34
2023-01-27T01:08:53.803Z,98801.19
2023-01-27T01:13:57.929Z,98800.31
2023-01-27T01:19:00.727Z,98805.44
2023-01-27T01:24:03.485Z,98806.22
2023-01-27T01:29:07.624Z,98815.03
2023-01-27T01:34:11.028Z,98811.47
2023-01-27T01:39:13.823Z,98821.97
2023-01-27T01:44:22.553Z,98835.94
2023-01-27T01:49:30.806Z,98835.94
2023-01-27T01:54:37.081Z,98827.13
2023-01-27T01:59:45.418Z,98827.13
2023-01-27T02:04:52.105Z,98828.06
2023-01-27T02:09:57.249Z,98827.22
2023-01-27T02:15:01.615Z,98827.22
2023-01-27T02:20:11.778Z,98810.59
2023-01-27T02:25:20.696Z,98822.91
2023-01-27T02:30:25.469Z,98816.94
2023-01-27T02:35:37.285Z,98817.78
2023-01-27T02:40:41.512Z,98814.25
2023-01-27T02:45:46.965Z,98812.28
2023-01-27T02:50:50.020Z,98818.25
2023-01-27T02:55:52.867Z,98816.81
2023-01-27T03:00:56.978Z,98814.38
2023-01-27T03:05:59.760Z,98818.78
2023-01-27T03:11:02.626Z,98825.88
2023-01-27T03:16:26.056Z,98831.00
2023-01-27T03:21:30.402Z,98829.94
2023-01-27T03:26:33.326Z,98836.25
2023-01-27T03:31:38.083Z,98841.69
2023-01-27T03:36:58.833Z,98839.81
2023-01-27T03:42:19.015Z,98837.09
2023-01-27T03:47:24.256Z,98841.38
2023-01-27T03:52:27.783Z,98844.91
2023-01-27T03:57:30.553Z,98851.94
2023-01-27T04:02:53.152Z,98856.22
2023-01-27T04:07:56.066Z,98863.13
2023-01-27T04:20:08.656Z,98851.88
2023-01-27T04:25:13.317Z,98851.94
2023-01-27T04:30:16.595Z,98860.59
2023-01-27T04:35:23.358Z,98851.94
2023-01-27T04:40:28.036Z,98861.50
2023-01-27T04:45:30.798Z,98857.91
2023-01-27T04:50:35.130Z,98865.84
2023-01-27T04:55:38.124Z,98855.69
2023-01-27T05:00:41.090Z,98861.78
2023-01-27T05:05:45.143Z,98865.16
2023-01-27T05:10:47.892Z,98870.31
2023-01-27T05:15:50.605Z,98878.19
2023-01-27T05:20:54.752Z,98885.28
2023-01-27T05:25:57.626Z,98884.38
2023-01-27T05:31:03.786Z,98886.94
2023-01-27T05:36:09.894Z,98895.66
2023-01-27T05:41:14.658Z,98895.78
2023-01-27T05:46:19.546Z,98900.91
2023-01-27T05:51:26.146Z,98911.63
2023-01-27T05:56:29.087Z,98919.44
2023-01-27T06:01:33.635Z,98922.00
2023-01-27T06:06:37.753Z,98924.50
2023-01-27T06:11:40.507Z,98922.72
2023-01-27T06:16:47.215Z,98924.50
2023-01-27T06:21:51.561Z,98930.59
2023-01-27T06:26:54.387Z,98932.28
2023-01-27T06:31:57.204Z,98932.28
2023-01-27T06:37:01.383Z,98938.47
2023-01-27T06:42:05.433Z,98942.03
2023-01-27T06:47:08.314Z,98951.69
2023-01-27T06:52:12.492Z,98948.97
2023-01-27T06:57:16.310Z,98954.31
2023-01-27T07:02:19.122Z,98952.47
2023-01-27T07:07:23.230Z,98948.88
2023-01-27T07:12:25.923Z,98954.97
2023-01-27T07:17:28.665Z,98947.97
2023-01-27T07:22:32.911Z,98954.00
2023-01-27T07:27:35.818Z,98956.53
2023-01-27T07:32:38.665Z,98968.75
2023-01-27T07:37:42.769Z,98964.28
2023-01-27T07:42:45.548Z,98978.97
2023-01-27T07:47:48.387Z,98983.16
2023-01-27T07:52:52.444Z,98983.75
2023-01-27T07:57:55.534Z,98978.38
2023-01-27T08:02:59.594Z,98989.50
2023-01-27T08:08:04.707Z,98993.69
2023-01-27T08:13:07.541Z,98992.50
2023-01-27T08:18:10.715Z,98999.06
2023-01-27T08:23:14.778Z,99004.41
2023-01-27T08:28:17.921Z,99004.97
2023-01-27T08:33:21.470Z,99003.78
2023-01-27T08:38:25.685Z,99004.66
2023-01-27T08:43:28.632Z,99018.44
2023-01-27T08:48:32.351Z,99024.69
2023-01-27T08:53:37.526Z,99030.06
2023-01-27T08:58:40.584Z,99035.88
2023-01-27T09:03:43.389Z,99036.75
2023-01-27T09:09:10.975Z,99038.25
2023-01-27T09:14:14.948Z,99044.72
2023-01-27T09:19:18.319Z,99049.63
2023-01-27T09:24:23.179Z,99041.69
2023-01-27T09:29:26.081Z,99052.84
2023-01-27T09:34:28.988Z,99050.06
2023-01-27T09:39:36.935Z,99047.22
2023-01-27T09:45:10.619Z,99053.84
2023-01-27T09:50:29.465Z,99046.72
2023-01-27T09:55:38.758Z,99041.44
2023-01-27T10:00:55.942Z,99043.59
2023-01-27T10:06:39.174Z,99040.81
2023-01-27T10:11:56.369Z,99049.06
2023-01-27T10:17:15.703Z,99056.03
2023-01-27T10:22:25.491Z,99061.38
2023-01-27T10:27:37.138Z,99070.22
2023-01-27T10:32:45.625Z,99068.56
2023-01-27T10:37:57.341Z,99075.69
2023-01-27T10:43:07.293Z,99070.66
2023-01-27T10:48:26.881Z,99080.47
2023-01-27T10:53:39.543Z,99077.75
2023-01-27T10:58:50.765Z,99070.25
2023-01-27T11:03:57.777Z,99069.09
2023-01-27T11:09:06.631Z,99069.47
2023-01-27T11:14:17.581Z,99075.31
2023-01-27T11:19:31.893Z,99074.19
2023-01-27T11:24:43.581Z,99078.38
2023-01-27T11:29:55.250Z,99081.13
2023-01-27T11:35:03.788Z,99077.47
2023-01-27T11:40:17.002Z,99063.34
2023-01-27T11:45:22.184Z,99063.13
2023-01-27T11:50:30.443Z,99063.50
2023-01-27T11:55:38.331Z,99060.34
2023-01-27T12:00:46.271Z,99051.34
2023-01-27T12:05:56.055Z,99043.44
2023-01-27T12:11:18.340Z,99037.19
2023-01-27T12:16:25.806Z,99034.31
2023-01-27T12:21:38.881Z,99032.47
2023-01-27T12:26:45.109Z,99031.84
2023-01-27T12:31:54.037Z,99025.28
2023-01-27T12:36:58.128Z,99029.38
2023-01-27T12:42:00.991Z,99024.19
2023-01-27T12:47:18.542Z,99018.91
2023-01-27T12:52:22.870Z,99014.94
2023-01-27T12:57:34.298Z,99027.53
2023-01-27T13:02:39.515Z,99019.22
2023-01-27T13:07:46.753Z,99020.84
2023-01-27T13:12:51.728Z,99019.22
2023-01-27T13:17:57.924Z,99016.78
2023-01-27T13:23:04.223Z,99024.63
2023-01-27T13:28:09.634Z,99029.34
2023-01-27T13:33:28.211Z,99025.47
2023-01-27T13:38:38.677Z,99028.22
2023-01-27T13:43:44.716Z,99030.53
2023-01-27T13:48:53.278Z,99034.97
2023-01-27T13:54:00.523Z,99035.50
2023-01-27T13:59:15.577Z,99039.75
2023-01-27T14:04:43.593Z,99040.69
2023-01-27T14:09:58.767Z,99050.09
2023-01-27T14:15:15.762Z,99051.94
2023-01-27T14:20:33.342Z,99053.97
2023-01-27T14:25:48.001Z,99065.19
2023-01-27T14:30:56.482Z,99070.50
2023-01-27T14:36:10.663Z,99074.84
2023-01-27T14:41:23.010Z,99082.13
2023-01-27T14:46:42.846Z,99082.75
2023-01-27T14:51:51.376Z,99085.94
2023-01-27T14:57:22.998Z,99088.84
2023-01-27T15:02:43.358Z,99094.41
2023-01-27T15:07:57.207Z,99095.41
2023-01-27T15:13:33.148Z,99102.78
2023-01-27T15:18:57.365Z,99102.16
2023-01-27T15:24:25.627Z,99104.47
2023-01-27T15:29:31.641Z,99116.22
2023-01-27T15:34:34.470Z,99115.59
2023-01-27T15:40:04.016Z,99126.38
2023-01-27T15:45:27.762Z,99129.69
2023-01-27T15:50:33.285Z,99135.00
2023-01-27T15:55:38.600Z,99137.06
2023-01-27T16:00:50.091Z,99135.63
2023-01-27T16:05:56.557Z,99133.91
2023-01-27T16:11:23.868Z,99135.84
2023-01-27T16:16:36.113Z,99149.91
2023-01-27T16:21:47.559Z,99146.44
2023-01-27T16:26:55.172Z,99143.16
2023-01-27T16:32:04.672Z,99146.78
2023-01-27T16:37:18.870Z,99148.63
2023-01-27T16:42:29.525Z,99145.06
2023-01-27T16:47:42.495Z,99155.72
2023-01-27T16:52:46.849Z,99160.06
2023-01-27T16:57:50.131Z,99163.78
2023-01-27T17:02:59.127Z,99162.97
2023-01-27T17:08:04.827Z,99167.38
2023-01-27T17:13:26.038Z,99170.09
2023-01-27T17:18:37.547Z,99178.00
2023-01-27T17:23:44.520Z,99178.91
2023-01-27T17:28:48.700Z,99183.31
2023-01-27T17:34:00.826Z,99182.38
2023-01-27T17:39:03.615Z,99192.00
2023-01-27T17:44:13.075Z,99201.56
2023-01-27T17:49:19.038Z,99211.94
2023-01-27T17:54:25.992Z,99211.16
2023-01-27T17:59:29.602Z,99208.47
2023-01-27T18:04:39.835Z,99222.56
2023-01-27T18:09:47.288Z,99224.28
2023-01-27T18:14:50.070Z,99222.56
2023-01-27T18:19:56.058Z,99226.13
2023-01-27T18:25:01.477Z,99219.97
2023-01-27T18:30:11.355Z,99215.59
2023-01-27T18:35:26.125Z,99217.34
2023-01-27T18:40:31.754Z,99221.81
2023-01-27T18:45:34.644Z,99224.38
2023-01-27T18:50:43.179Z,99223.66
2023-01-27T18:55:46.098Z,99234.19
2023-01-27T19:00:51.110Z,99230.78
2023-01-27T19:05:55.774Z,99236.09
2023-01-27T19:10:58.587Z,99243.22
2023-01-27T19:16:01.490Z,99244.91
2023-01-27T19:21:06.336Z,99250.31
2023-01-27T19:26:16.712Z,99260.00
2023-01-27T19:31:21.101Z,99254.66
2023-01-27T19:36:28.167Z,99260.00
2023-01-27T19:41:30.713Z,99251.38
2023-01-27T19:46:34.992Z,99252.28
2023-01-27T19:51:39.315Z,99258.41
2023-01-27T19:56:42.212Z,99266.38
2023-01-27T20:01:45.036Z,99265.63
2023-01-27T20:06:49.199Z,99268.22
2023-01-27T20:11:52.066Z,99273.47
2023-01-27T20:16:54.876Z,99285.75
2023-01-27T20:22:01.435Z,99277.81
2023-01-27T20:27:04.219Z,99274.31
2023-01-27T20:32:09.483Z,99277.81
2023-01-27T20:37:13.634Z,99283.06
2023-01-27T20:42:16.429Z,99282.28
2023-01-27T20:47:19.226Z,99291.94
2023-01-27T20:52:25.020Z,99299.84
2023-01-27T20:57:31.052Z,99294.56
2023-01-27T21:02:33.930Z,99307.81
2023-01-27T21:07:38.115Z,99301.88
2023-01-27T21:12:40.919Z,99301.00
2023-01-27T21:17:43.731Z,99307.16
2023-01-27T21:22:47.980Z,99300.22
2023-01-27T21:27:50.838Z,99302.00
2023-01-27T21:32:53.961Z,99303.84
2023-01-27T21:37:58.227Z,99308.38
2023-01-27T21:43:18.662Z,99301.28
2023-01-27T21:48:21.384Z,99305.69
2023-01-27T21:53:26.659Z,99305.78
2023-01-27T21:58:29.471Z,99303.22
2023-01-27T22:03:32.282Z,99309.34
2023-01-27T22:08:37.315Z,99304.19
2023-01-27T22:13:40.431Z,99307.69
2023-01-27T22:18:43.294Z,99298.88
2023-01-27T22:23:47.885Z,99291.91
2023-01-27T22:28:50.655Z,99299.13
2023-01-27T22:33:54.352Z,99301.66
2023-01-27T22:38:58.591Z,99296.50
2023-01-27T22:44:01.294Z,99301.81
2023-01-27T22:49:04.215Z,99291.47
2023-01-27T22:54:10.443Z,99290.75
2023-01-27T22:59:13.977Z,99296.00
2023-01-27T23:04:16.787Z,99293.75
2023-01-27T23:09:20.858Z,99297.84
2023-01-27T23:14:23.975Z,99297.09
2023-01-27T23:19:26.738Z,99301.53
2023-01-27T23:24:30.962Z,99305.06
2023-01-27T23:29:33.790Z,99304.06
2023-01-27T23:34:36.609Z,99301.56
2023-01-27T23:39:45.639Z,99308.75
2023-01-27T23:44:48.783Z,99309.56
2023-01-27T23:49:53.912Z,99321.09
2023-01-27T23:54:58.093Z,99315.72
